createdAt,value
2022-11-08T00:00:06.327Z,0.00
2022-11-08T00:01:07.698Z,0.00
2022-11-08T00:02:06.397Z,0.00
2022-11-08T00:03:06.451Z,0.00
2022-11-08T00:04:06.209Z,0.00
2022-11-08T00:05:06.229Z,0.00
2022-11-08T00:06:06.511Z,0.00
2022-11-08T00:07:06.252Z,0.00
2022-11-08T00:08:06.176Z,0.00
2022-11-08T00:09:06.142Z,0.00
2022-11-08T00:10:07.216Z,0.00
2022-11-08T00:11:06.352Z,0.00
2022-11-08T00:12:06.160Z,0.00
2022-11-08T00:13:06.132Z,0.00
2022-11-08T00:14:06.315Z,0.00
2022-11-08T00:15:06.235Z,0.00
2022-11-08T00:16:06.153Z,0.00
2022-11-08T00:17:06.034Z,0.00
2022-11-08T00:18:06.052Z,0.00
2022-11-08T00:19:06.031Z,0.00
2022-11-08T00:20:05.987Z,0.00
2022-11-08T00:21:06.002Z,0.00
2022-11-08T00:22:05.983Z,0.00
2022-11-08T00:23:06.142Z,0.00
2022-11-08T00:24:06.170Z,0.00
2022-11-08T00:25:06.019Z,0.00
2022-11-08T00:26:05.946Z,0.00
2022-11-08T00:27:05.929Z,0.00
2022-11-08T00:28:05.942Z,0.00
2022-11-08T00:29:05.866Z,0.00
2022-11-08T00:30:05.898Z,0.00
2022-11-08T00:31:06.738Z,0.00
2022-11-08T00:32:05.917Z,0.00
2022-11-08T00:33:05.830Z,0.00
2022-11-08T00:34:06.718Z,0.00
2022-11-08T00:35:05.860Z,0.00
2022-11-08T00:36:06.775Z,0.00
2022-11-08T00:37:05.802Z,0.00
2022-11-08T00:38:05.797Z,0.00
2022-11-08T00:39:05.791Z,0.00
2022-11-08T00:40:05.786Z,0.00
2022-11-08T00:41:05.751Z,0.00
2022-11-08T00:42:05.842Z,0.00
2022-11-08T00:43:05.753Z,0.00
2022-11-08T00:44:05.749Z,0.00
2022-11-08T00:45:05.711Z,0.00
2022-11-08T00:46:05.652Z,0.00
2022-11-08T00:47:05.741Z,0.00
2022-11-08T00:48:05.742Z,0.00
2022-11-08T00:49:05.643Z,0.00
2022-11-08T00:50:05.702Z,0.00
2022-11-08T00:51:05.613Z,0.00
2022-11-08T00:52:05.672Z,0.00
2022-11-08T00:53:06.669Z,0.00
2022-11-08T00:54:05.707Z,0.00
2022-11-08T00:55:05.652Z,0.00
2022-11-08T00:56:05.559Z,0.00
2022-11-08T00:57:05.562Z,0.00
2022-11-08T00:58:05.551Z,0.00
2022-11-08T00:59:05.514Z,0.00
2022-11-08T01:00:05.566Z,0.00
2022-11-08T01:01:05.557Z,0.00
2022-11-08T01:02:05.572Z,0.00
2022-11-08T01:03:05.442Z,0.00
2022-11-08T01:04:05.424Z,0.00
2022-11-08T01:05:06.465Z,0.00
2022-11-08T01:06:06.535Z,0.00
2022-11-08T01:07:05.403Z,0.00
2022-11-08T01:08:05.384Z,0.00
2022-11-08T01:09:06.316Z,0.00
2022-11-08T01:10:05.366Z,0.00
2022-11-08T01:11:05.384Z,0.00
2022-11-08T01:12:05.317Z,0.00
2022-11-08T01:13:05.353Z,0.00
2022-11-08T01:14:05.547Z,0.00
2022-11-08T01:15:05.359Z,0.00
2022-11-08T01:16:05.280Z,0.00
2022-11-08T01:17:05.286Z,0.00
2022-11-08T01:18:05.290Z,0.00
2022-11-08T01:19:05.267Z,0.00
2022-11-08T01:20:05.248Z,0.00
2022-11-08T01:21:05.198Z,0.00
2022-11-08T01:22:06.450Z,0.00
2022-11-08T01:23:05.191Z,0.00
2022-11-08T01:24:05.264Z,0.00
2022-11-08T01:25:05.179Z,0.00
2022-11-08T01:26:05.148Z,0.00
2022-11-08T01:27:05.973Z,0.00
2022-11-08T01:28:05.259Z,0.00
2022-11-08T01:29:06.297Z,0.00
2022-11-08T01:30:05.238Z,0.00
2022-11-08T01:31:05.569Z,0.00
2022-11-08T01:32:05.082Z,0.00
2022-11-08T01:33:05.115Z,0.00
2022-11-08T01:34:05.448Z,0.00
2022-11-08T01:35:05.084Z,0.00
2022-11-08T01:36:05.002Z,0.00
2022-11-08T01:37:04.993Z,0.00
2022-11-08T01:38:05.055Z,0.00
2022-11-08T01:39:05.054Z,0.00
2022-11-08T01:40:05.002Z,0.00
2022-11-08T01:41:04.950Z,0.00
2022-11-08T01:42:05.391Z,0.00
2022-11-08T01:43:04.942Z,0.00
2022-11-08T01:44:04.891Z,0.00
2022-11-08T01:45:04.902Z,0.00
2022-11-08T01:46:04.876Z,0.00
2022-11-08T01:47:04.871Z,0.00
2022-11-08T01:48:04.852Z,0.00
2022-11-08T01:49:04.925Z,0.00
2022-11-08T01:50:04.833Z,0.00
2022-11-08T01:51:04.847Z,0.00
2022-11-08T01:52:04.894Z,0.00
2022-11-08T01:53:04.882Z,0.00
2022-11-08T01:54:04.823Z,0.00
2022-11-08T01:55:04.795Z,0.00
2022-11-08T01:56:04.828Z,0.00
2022-11-08T01:57:04.731Z,0.00
2022-11-08T01:58:04.760Z,0.00
2022-11-08T01:59:04.715Z,0.00
2022-11-08T02:00:04.980Z,0.00
2022-11-08T02:01:04.763Z,0.00
2022-11-08T02:02:04.703Z,0.00
2022-11-08T02:03:04.647Z,0.00
2022-11-08T02:04:04.745Z,0.00
2022-11-08T02:05:04.658Z,0.00
2022-11-08T02:06:04.747Z,0.00
2022-11-08T02:07:04.636Z,0.00
2022-11-08T02:08:04.620Z,0.00
2022-11-08T02:09:04.641Z,0.00
2022-11-08T02:10:04.980Z,0.00
2022-11-08T02:11:04.600Z,0.00
2022-11-08T02:12:04.539Z,0.00
2022-11-08T02:13:05.504Z,0.00
2022-11-08T02:14:04.559Z,0.00
2022-11-08T02:15:04.502Z,0.00
2022-11-08T02:16:04.500Z,0.00
2022-11-08T02:17:04.480Z,0.00
2022-11-08T02:18:04.472Z,0.00
2022-11-08T02:19:04.464Z,0.00
2022-11-08T02:20:04.480Z,0.00
2022-11-08T02:21:04.436Z,0.00
2022-11-08T02:22:04.410Z,0.00
2022-11-08T02:23:04.422Z,0.00
2022-11-08T02:24:04.415Z,0.00
2022-11-08T02:25:04.373Z,0.00
2022-11-08T02:26:04.390Z,0.00
2022-11-08T02:27:04.345Z,0.00
2022-11-08T02:28:04.402Z,0.00
2022-11-08T02:29:04.413Z,0.00
2022-11-08T02:30:04.332Z,0.00
2022-11-08T02:31:04.306Z,0.00
2022-11-08T02:32:04.309Z,0.00
2022-11-08T02:33:05.265Z,0.00
2022-11-08T02:34:04.413Z,0.00
2022-11-08T02:35:04.415Z,0.00
2022-11-08T02:36:04.237Z,0.00
2022-11-08T02:37:04.242Z,0.00
2022-11-08T02:38:04.231Z,0.00
2022-11-08T02:39:04.306Z,0.00
2022-11-08T02:40:04.229Z,0.00
2022-11-08T02:41:04.165Z,0.00
2022-11-08T02:42:04.178Z,0.00
2022-11-08T02:43:04.131Z,0.00
2022-11-08T02:44:04.199Z,0.00
2022-11-08T02:45:04.133Z,0.00
2022-11-08T02:46:04.129Z,0.00
2022-11-08T02:47:04.107Z,0.00
2022-11-08T02:48:04.098Z,0.00
2022-11-08T02:49:04.050Z,0.00
2022-11-08T02:50:04.038Z,0.00
2022-11-08T02:51:05.067Z,0.00
2022-11-08T02:52:04.131Z,0.00
2022-11-08T02:53:04.016Z,0.00
2022-11-08T02:54:04.019Z,0.00
2022-11-08T02:55:03.984Z,0.00
2022-11-08T02:56:05.103Z,0.00
2022-11-08T02:57:04.101Z,0.00
2022-11-08T02:58:03.961Z,0.00
2022-11-08T02:59:03.972Z,0.00
2022-11-08T03:00:03.970Z,0.00
2022-11-08T03:01:04.063Z,0.00
2022-11-08T03:02:04.041Z,0.00
2022-11-08T03:03:04.940Z,0.00
2022-11-08T03:04:03.870Z,0.00
2022-11-08T03:05:03.958Z,0.00
2022-11-08T03:06:03.877Z,0.00
2022-11-08T03:07:03.929Z,0.00
2022-11-08T03:08:03.812Z,0.00
2022-11-08T03:09:03.826Z,0.00
2022-11-08T03:10:03.827Z,0.00
2022-11-08T03:11:03.794Z,0.00
2022-11-08T03:12:03.820Z,0.00
2022-11-08T03:13:03.736Z,0.00
2022-11-08T03:14:03.778Z,0.00
2022-11-08T03:15:03.746Z,0.00
2022-11-08T03:16:03.783Z,0.00
2022-11-08T03:17:03.735Z,0.00
2022-11-08T03:18:03.724Z,0.00
2022-11-08T03:19:03.674Z,0.00
2022-11-08T03:20:03.662Z,0.00
2022-11-08T03:21:03.653Z,0.00
2022-11-08T03:22:03.653Z,0.00
2022-11-08T03:23:03.644Z,0.00
2022-11-08T03:24:03.614Z,0.00
2022-11-08T03:25:03.635Z,0.00
2022-11-08T03:26:03.590Z,0.00
2022-11-08T03:27:03.575Z,0.00
2022-11-08T03:28:03.647Z,0.00
2022-11-08T03:29:03.605Z,0.00
2022-11-08T03:30:03.530Z,0.00
2022-11-08T03:31:03.515Z,0.00
2022-11-08T03:32:03.540Z,0.00
2022-11-08T03:33:03.533Z,0.00
2022-11-08T03:34:03.508Z,0.00
2022-11-08T03:35:03.490Z,0.00
2022-11-08T03:36:03.487Z,0.00
2022-11-08T03:37:03.478Z,0.00
2022-11-08T03:38:03.439Z,0.00
2022-11-08T03:39:03.436Z,0.00
2022-11-08T03:40:03.437Z,0.00
2022-11-08T03:41:03.424Z,0.00
2022-11-08T03:42:03.656Z,0.00
2022-11-08T03:43:03.370Z,0.00
2022-11-08T03:44:03.369Z,0.00
2022-11-08T03:45:03.348Z,0.00
2022-11-08T03:46:03.387Z,0.00
2022-11-08T03:47:03.333Z,0.00
2022-11-08T03:48:03.321Z,0.00
2022-11-08T03:49:03.387Z,0.00
2022-11-08T03:50:03.361Z,0.00
2022-11-08T03:51:03.261Z,0.00
2022-11-08T03:52:03.278Z,0.00
2022-11-08T03:53:03.267Z,0.00
2022-11-08T03:54:03.264Z,0.00
2022-11-08T03:55:03.267Z,0.00
2022-11-08T03:56:03.233Z,0.00
2022-11-08T03:57:03.223Z,0.00
2022-11-08T03:58:03.188Z,0.00
2022-11-08T03:59:03.253Z,0.00
2022-11-08T04:00:03.241Z,0.00
2022-11-08T04:01:03.246Z,0.00
2022-11-08T04:02:04.490Z,0.00
2022-11-08T04:03:03.113Z,0.00
2022-11-08T04:04:04.206Z,0.00
2022-11-08T04:05:04.108Z,0.00
2022-11-08T04:06:03.154Z,0.00
2022-11-08T04:07:03.153Z,0.00
2022-11-08T04:08:03.102Z,0.00
2022-11-08T04:09:03.053Z,0.00
2022-11-08T04:10:03.042Z,0.00
2022-11-08T04:11:03.074Z,0.00
2022-11-08T04:12:03.030Z,0.00
2022-11-08T04:13:03.965Z,0.00
2022-11-08T04:14:02.970Z,0.00
2022-11-08T04:15:03.977Z,0.00
2022-11-08T04:16:03.036Z,0.00
2022-11-08T04:17:02.953Z,0.00
2022-11-08T04:18:02.953Z,0.00
2022-11-08T04:19:02.947Z,0.00
2022-11-08T04:20:03.063Z,0.00
2022-11-08T04:21:02.931Z,0.00
2022-11-08T04:22:02.865Z,0.00
2022-11-08T04:23:02.928Z,0.00
2022-11-08T04:24:02.865Z,0.00
2022-11-08T04:25:02.852Z,0.00
2022-11-08T04:26:03.250Z,0.00
2022-11-08T04:27:04.044Z,0.00
2022-11-08T04:28:02.825Z,0.00
2022-11-08T04:29:02.775Z,0.00
2022-11-08T04:30:02.816Z,0.00
2022-11-08T04:31:02.840Z,0.00
2022-11-08T04:32:02.776Z,0.00
2022-11-08T04:33:02.809Z,0.00
2022-11-08T04:34:02.771Z,0.00
2022-11-08T04:35:02.761Z,0.00
2022-11-08T04:36:02.810Z,0.00
2022-11-08T04:37:02.711Z,0.00
2022-11-08T04:38:02.700Z,0.00
2022-11-08T04:39:02.660Z,0.00
2022-11-08T04:40:02.781Z,0.00
2022-11-08T04:41:02.672Z,0.00
2022-11-08T04:42:02.827Z,0.00
2022-11-08T04:43:02.649Z,0.00
2022-11-08T04:44:02.630Z,0.00
2022-11-08T04:45:02.632Z,0.00
2022-11-08T04:46:02.580Z,0.00
2022-11-08T04:47:02.591Z,0.00
2022-11-08T04:48:02.571Z,0.00
2022-11-08T04:49:02.567Z,0.00
2022-11-08T04:50:02.545Z,0.00
2022-11-08T04:51:03.284Z,0.00
2022-11-08T04:52:02.497Z,0.00
2022-11-08T04:53:02.531Z,0.00
2022-11-08T04:54:02.493Z,0.00
2022-11-08T04:55:02.501Z,0.00
2022-11-08T04:56:02.422Z,0.00
2022-11-08T04:57:02.643Z,0.00
2022-11-08T04:58:02.435Z,0.00
2022-11-08T04:59:02.453Z,0.00
2022-11-08T05:00:02.406Z,0.00
2022-11-08T05:01:02.447Z,0.00
2022-11-08T05:02:02.573Z,0.00
2022-11-08T05:03:02.356Z,0.00
2022-11-08T05:04:02.438Z,0.00
2022-11-08T05:05:02.406Z,0.00
2022-11-08T05:06:02.306Z,0.00
2022-11-08T05:07:02.366Z,0.00
2022-11-08T05:08:03.248Z,0.00
2022-11-08T05:09:02.334Z,0.00
2022-11-08T05:10:02.864Z,0.00
2022-11-08T05:11:02.327Z,0.00
2022-11-08T05:12:03.236Z,0.00
2022-11-08T05:13:02.245Z,0.00
2022-11-08T05:14:02.246Z,0.00
2022-11-08T05:15:02.240Z,0.00
2022-11-08T05:16:02.245Z,0.00
2022-11-08T05:17:03.346Z,0.00
2022-11-08T05:18:02.677Z,0.00
2022-11-08T05:19:02.135Z,0.00
2022-11-08T05:20:02.343Z,0.00
2022-11-08T05:21:02.147Z,0.00
2022-11-08T05:22:02.167Z,0.00
2022-11-08T05:23:02.171Z,0.00
2022-11-08T05:24:02.139Z,0.00
2022-11-08T05:25:02.079Z,0.00
2022-11-08T05:26:02.104Z,0.00
2022-11-08T05:27:03.521Z,0.00
2022-11-08T05:28:02.138Z,0.00
2022-11-08T05:29:02.069Z,0.00
2022-11-08T05:30:03.121Z,0.00
2022-11-08T05:31:02.646Z,0.00
2022-11-08T05:32:02.071Z,0.00
2022-11-08T05:33:02.010Z,0.00
2022-11-08T05:34:01.947Z,0.00
2022-11-08T05:35:03.046Z,0.00
2022-11-08T05:36:05.633Z,0.00
2022-11-08T05:37:02.582Z,0.00
2022-11-08T05:38:01.928Z,0.00
2022-11-08T05:39:01.982Z,0.00
2022-11-08T05:40:01.991Z,0.00
2022-11-08T05:41:02.220Z,0.00
2022-11-08T05:42:01.908Z,0.00
2022-11-08T05:43:01.997Z,0.00
2022-11-08T05:44:02.806Z,0.00
2022-11-08T05:45:05.236Z,0.00
2022-11-08T05:46:03.761Z,0.00
2022-11-08T05:47:01.838Z,0.00
2022-11-08T05:48:02.710Z,0.00
2022-11-08T05:49:01.794Z,0.00
2022-11-08T05:50:01.843Z,0.00
2022-11-08T05:51:01.779Z,0.00
2022-11-08T05:52:01.725Z,4.00
2022-11-08T05:53:01.779Z,0.00
2022-11-08T05:54:01.709Z,0.00
2022-11-08T05:55:02.064Z,4.00
2022-11-08T05:56:02.676Z,4.00
2022-11-08T05:57:02.622Z,4.00
2022-11-08T05:58:02.474Z,4.00
2022-11-08T05:59:02.124Z,4.00
2022-11-08T06:00:01.705Z,8.00
2022-11-08T06:01:02.558Z,8.00
2022-11-08T06:02:02.660Z,8.00
2022-11-08T06:03:01.702Z,8.00
2022-11-08T06:04:02.038Z,12.00
2022-11-08T06:05:02.181Z,12.00
2022-11-08T06:06:01.647Z,16.00
2022-11-08T06:07:01.609Z,16.00
2022-11-08T06:08:01.516Z,24.00
2022-11-08T06:09:01.557Z,28.00
2022-11-08T06:10:01.522Z,32.00
2022-11-08T06:11:01.665Z,36.00
2022-11-08T06:12:01.529Z,44.00
2022-11-08T06:13:01.790Z,48.00
2022-11-08T06:14:01.560Z,60.00
2022-11-08T06:15:01.438Z,68.00
2022-11-08T06:16:01.465Z,76.00
2022-11-08T06:17:01.777Z,84.00
2022-11-08T06:18:01.388Z,92.00
2022-11-08T06:19:01.403Z,100.00
2022-11-08T06:20:01.509Z,112.00
2022-11-08T06:21:01.369Z,128.00
2022-11-08T06:22:01.852Z,152.00
2022-11-08T06:23:01.320Z,176.00
2022-11-08T06:24:01.307Z,204.00
2022-11-08T06:25:01.300Z,228.00
2022-11-08T06:26:01.396Z,252.00
2022-11-08T06:27:01.383Z,272.00
2022-11-08T06:28:01.418Z,300.00
2022-11-08T06:29:01.242Z,324.00
2022-11-08T06:30:01.337Z,344.00
2022-11-08T06:31:01.430Z,372.00
2022-11-08T06:32:02.298Z,404.00
2022-11-08T06:33:01.239Z,436.00
2022-11-08T06:34:02.092Z,468.00
2022-11-08T06:35:01.167Z,504.00
2022-11-08T06:36:02.415Z,540.00
2022-11-08T06:37:01.411Z,576.00
2022-11-08T06:38:05.682Z,612.00
2022-11-08T06:39:02.205Z,644.00
2022-11-08T06:40:02.033Z,680.00
2022-11-08T06:41:01.173Z,716.00
2022-11-08T06:42:01.256Z,752.00
2022-11-08T06:43:01.564Z,788.00
2022-11-08T06:44:01.183Z,820.00
2022-11-08T06:45:01.463Z,852.00
2022-11-08T06:46:01.083Z,880.00
2022-11-08T06:47:01.004Z,916.00
2022-11-08T06:48:02.114Z,944.00
2022-11-08T06:49:02.537Z,976.00
2022-11-08T06:50:01.165Z,1004.00
2022-11-08T06:51:01.076Z,1032.00
2022-11-08T06:52:00.977Z,1060.00
2022-11-08T06:53:01.015Z,1088.00
2022-11-08T06:54:00.997Z,1112.00
2022-11-08T06:55:00.940Z,1136.00
2022-11-08T06:56:00.914Z,1164.00
2022-11-08T06:57:01.002Z,1188.00
2022-11-08T06:58:00.954Z,1216.00
2022-11-08T06:59:00.926Z,1252.00
2022-11-08T07:00:01.661Z,1292.00
2022-11-08T07:01:00.846Z,1328.00
2022-11-08T07:02:01.260Z,1372.00
2022-11-08T07:03:01.970Z,1416.00
2022-11-08T07:04:00.834Z,1468.00
2022-11-08T07:05:00.869Z,1524.00
2022-11-08T07:06:00.770Z,1576.00
2022-11-08T07:07:00.797Z,1632.00
2022-11-08T07:08:00.788Z,1680.00
2022-11-08T07:09:00.925Z,1728.00
2022-11-08T07:10:03.831Z,1768.00
2022-11-08T07:11:01.620Z,1800.00
2022-11-08T07:12:00.699Z,1832.00
2022-11-08T07:13:01.952Z,1848.00
2022-11-08T07:14:00.726Z,1860.00
2022-11-08T07:15:01.742Z,1868.00
2022-11-08T07:16:00.897Z,1876.00
2022-11-08T07:17:00.630Z,1884.00
2022-11-08T07:18:00.668Z,1892.00
2022-11-08T07:19:00.883Z,1904.00
2022-11-08T07:20:01.770Z,1932.00
2022-11-08T07:21:00.827Z,1980.00
2022-11-08T07:22:00.816Z,2036.00
2022-11-08T07:23:01.502Z,2088.00
2022-11-08T07:24:00.600Z,2132.00
2022-11-08T07:25:00.532Z,2204.00
2022-11-08T07:26:00.880Z,2276.00
2022-11-08T07:27:00.534Z,2356.00
2022-11-08T07:28:00.643Z,2432.00
2022-11-08T07:29:00.570Z,2492.00
2022-11-08T07:30:01.357Z,2540.00
2022-11-08T07:31:00.487Z,2576.00
2022-11-08T07:32:00.531Z,2608.00
2022-11-08T07:33:00.430Z,2648.00
2022-11-08T07:34:00.563Z,2684.00
2022-11-08T07:35:00.724Z,2708.00
2022-11-08T07:36:00.453Z,2752.00
2022-11-08T07:37:01.356Z,2788.00
2022-11-08T07:38:00.399Z,2816.00
2022-11-08T07:39:06.317Z,2836.00
2022-11-08T07:40:01.468Z,2792.00
2022-11-08T07:41:01.328Z,2800.00
2022-11-08T07:42:00.303Z,2780.00
2022-11-08T07:43:15.720Z,2756.00
2022-11-08T07:44:01.292Z,2736.00
2022-11-08T07:45:01.428Z,2752.00
2022-11-08T07:46:00.396Z,2776.00
2022-11-08T07:47:01.237Z,2800.00
2022-11-08T07:48:00.249Z,2820.00
2022-11-08T07:49:00.256Z,2824.00
2022-11-08T07:50:01.488Z,2872.00
2022-11-08T07:51:00.212Z,2908.00
2022-11-08T07:52:00.222Z,2896.00
2022-11-08T07:53:00.329Z,2884.00
2022-11-08T07:54:03.025Z,2864.00
2022-11-08T07:55:01.202Z,2872.00
2022-11-08T07:56:00.191Z,2856.00
2022-11-08T07:57:00.112Z,2828.00
2022-11-08T07:58:00.100Z,2796.00
2022-11-08T07:59:00.173Z,2756.00
2022-11-08T08:00:03.610Z,2728.00
2022-11-08T08:01:01.559Z,2688.00
2022-11-08T08:02:00.317Z,2660.00
2022-11-08T08:03:00.996Z,2632.00
2022-11-08T08:04:00.034Z,2632.00
2022-11-08T08:05:00.067Z,2604.00
2022-11-08T08:06:01.460Z,2560.00
2022-11-08T08:07:00.984Z,2544.00
2022-11-08T08:08:00.754Z,2536.00
2022-11-08T08:09:00.124Z,2512.00
2022-11-08T08:10:00.008Z,2492.00
2022-11-08T08:11:00.987Z,2484.00
2022-11-08T08:12:00.879Z,2464.00
2022-11-08T08:12:59.935Z,2432.00
2022-11-08T08:13:59.935Z,2388.00
2022-11-08T08:15:00.461Z,2348.00
2022-11-08T08:16:00.988Z,2352.00
2022-11-08T08:17:00.184Z,2308.00
2022-11-08T08:17:59.874Z,2300.00
2022-11-08T08:19:00.263Z,2332.00
2022-11-08T08:19:59.843Z,2340.00
2022-11-08T08:21:00.173Z,2316.00
2022-11-08T08:21:59.855Z,2368.00
2022-11-08T08:23:00.760Z,2436.00
2022-11-08T08:23:59.775Z,2528.00
2022-11-08T08:25:03.269Z,2644.00
2022-11-08T08:26:00.210Z,2744.00
2022-11-08T08:27:00.235Z,2808.00
2022-11-08T08:27:59.765Z,2876.00
2022-11-08T08:28:59.864Z,2912.00
2022-11-08T08:29:59.824Z,2952.00
2022-11-08T08:30:59.927Z,3000.00
2022-11-08T08:31:59.859Z,3120.00
2022-11-08T08:33:26.444Z,3220.00
2022-11-08T08:34:00.706Z,3336.00
2022-11-08T08:34:59.623Z,3464.00
2022-11-08T08:35:59.606Z,3560.00
2022-11-08T08:37:00.519Z,3612.00
2022-11-08T08:38:00.431Z,3688.00
2022-11-08T08:38:59.585Z,3792.00
2022-11-08T08:39:59.637Z,3908.00
2022-11-08T08:40:59.586Z,3952.00
2022-11-08T08:41:59.536Z,4000.00
2022-11-08T08:43:00.350Z,4012.00
2022-11-08T08:43:59.678Z,4036.00
2022-11-08T08:45:00.271Z,4076.00
2022-11-08T08:45:59.542Z,4128.00
2022-11-08T08:46:59.571Z,4164.00
2022-11-08T08:48:00.499Z,4208.00
2022-11-08T08:48:59.680Z,4236.00
2022-11-08T08:50:00.361Z,4248.00
2022-11-08T08:51:00.372Z,4276.00
2022-11-08T08:51:59.460Z,4284.00
2022-11-08T08:52:59.643Z,4356.00
2022-11-08T08:53:59.498Z,4456.00
2022-11-08T08:54:59.440Z,4548.00
2022-11-08T08:55:59.381Z,4648.00
2022-11-08T08:56:59.411Z,4788.00
2022-11-08T08:57:59.399Z,4908.00
2022-11-08T09:02:00.285Z,5388.00
2022-11-08T09:02:59.425Z,5436.00
2022-11-08T09:04:00.500Z,5456.00
2022-11-08T09:05:00.241Z,5440.00
2022-11-08T09:05:59.272Z,5380.00
2022-11-08T09:06:59.314Z,5416.00
2022-11-08T09:07:59.284Z,5436.00
2022-11-08T09:09:00.013Z,5408.00
2022-11-08T09:10:00.208Z,5404.00
2022-11-08T09:10:59.315Z,5384.00
2022-11-08T09:11:59.176Z,5308.00
2022-11-08T09:12:59.955Z,5344.00
2022-11-08T09:13:59.153Z,5392.00
2022-11-08T09:14:59.132Z,5416.00
2022-11-08T09:16:00.090Z,5440.00
2022-11-08T09:16:59.087Z,5396.00
2022-11-08T09:17:59.106Z,5376.00
2022-11-08T09:18:59.179Z,5360.00
2022-11-08T09:19:59.268Z,5340.00
2022-11-08T09:20:59.886Z,5300.00
2022-11-08T09:21:59.148Z,5376.00
2022-11-08T09:22:59.008Z,5380.00
2022-11-08T09:23:59.160Z,5388.00
2022-11-08T09:24:59.077Z,5392.00
2022-11-08T09:25:58.995Z,5376.00
2022-11-08T09:26:58.958Z,5416.00
2022-11-08T09:27:59.098Z,5532.00
2022-11-08T09:29:00.149Z,5620.00
2022-11-08T09:29:58.965Z,5636.00
2022-11-08T09:30:59.056Z,5652.00
2022-11-08T09:31:59.047Z,5692.00
2022-11-08T09:33:01.615Z,5680.00
2022-11-08T09:33:58.944Z,5664.00
2022-11-08T09:34:58.902Z,5672.00
2022-11-08T09:35:59.156Z,5656.00
2022-11-08T09:36:58.977Z,5632.00
2022-11-08T09:37:58.791Z,5504.00
2022-11-08T09:38:59.039Z,5384.00
2022-11-08T09:39:58.820Z,5288.00
2022-11-08T09:40:59.443Z,5156.00
2022-11-08T09:41:58.781Z,5048.00
2022-11-08T09:42:58.742Z,4944.00
2022-11-08T09:43:59.307Z,4800.00
2022-11-08T09:45:00.339Z,4756.00
2022-11-08T09:45:58.713Z,4668.00
2022-11-08T09:46:58.712Z,4560.00
2022-11-08T09:47:58.735Z,4500.00
2022-11-08T09:48:58.775Z,4504.00
2022-11-08T09:49:58.710Z,4588.00
2022-11-08T09:50:58.784Z,4656.00
2022-11-08T09:51:59.162Z,4752.00
2022-11-08T09:52:59.373Z,4776.00
2022-11-08T09:53:58.695Z,4808.00
2022-11-08T09:54:58.679Z,4776.00
2022-11-08T09:55:59.603Z,4868.00
2022-11-08T09:56:58.594Z,4908.00
2022-11-08T09:57:58.546Z,4988.00
2022-11-08T09:58:58.526Z,4980.00
2022-11-08T09:59:58.613Z,4932.00
2022-11-08T10:00:58.862Z,4920.00
2022-11-08T10:01:58.935Z,4920.00
2022-11-08T10:02:58.545Z,4932.00
2022-11-08T10:03:58.463Z,4948.00
2022-11-08T10:04:58.613Z,4976.00
2022-11-08T10:05:58.489Z,4964.00
2022-11-08T10:07:02.495Z,4988.00
2022-11-08T10:07:59.470Z,5028.00
2022-11-08T10:08:58.463Z,5032.00
2022-11-08T10:09:58.578Z,5024.00
2022-11-08T10:10:58.417Z,5024.00
2022-11-08T10:11:58.602Z,5020.00
2022-11-08T10:12:58.372Z,4976.00
2022-11-08T10:13:58.365Z,4940.00
2022-11-08T10:14:58.439Z,4900.00
2022-11-08T10:15:58.342Z,4856.00
2022-11-08T10:16:58.332Z,4820.00
2022-11-08T10:17:59.539Z,4756.00
2022-11-08T10:18:58.414Z,4684.00
2022-11-08T10:20:02.329Z,4684.00
2022-11-08T10:20:59.246Z,4700.00
2022-11-08T10:21:58.214Z,4688.00
2022-11-08T10:22:58.260Z,4680.00
2022-11-08T10:23:58.191Z,4672.00
2022-11-08T10:24:58.181Z,4664.00
2022-11-08T10:25:58.276Z,4628.00
2022-11-08T10:26:59.166Z,4644.00
2022-11-08T10:27:58.282Z,4632.00
2022-11-08T10:28:58.152Z,4628.00
2022-11-08T10:29:58.211Z,4640.00
2022-11-08T10:30:58.139Z,4652.00
2022-11-08T10:31:58.154Z,4652.00
2022-11-08T10:32:59.127Z,4680.00
2022-11-08T10:33:58.179Z,4732.00
2022-11-08T10:34:58.091Z,4752.00
2022-11-08T10:36:02.209Z,4788.00
2022-11-08T10:36:58.055Z,4864.00
2022-11-08T10:37:59.026Z,4928.00
2022-11-08T10:38:59.051Z,4968.00
2022-11-08T10:39:58.233Z,4980.00
2022-11-08T10:40:58.219Z,5028.00
2022-11-08T10:41:57.975Z,5116.00
2022-11-08T10:42:58.238Z,5180.00
2022-11-08T10:43:59.088Z,5160.00
2022-11-08T10:44:57.938Z,5288.00
2022-11-08T10:45:58.228Z,5332.00
2022-11-08T10:46:58.800Z,5344.00
2022-11-08T10:47:57.920Z,5336.00
2022-11-08T10:48:57.920Z,5312.00
2022-11-08T10:50:03.397Z,5300.00
2022-11-08T10:50:59.256Z,5292.00
2022-11-08T10:51:57.912Z,5264.00
2022-11-08T10:52:57.934Z,5220.00
2022-11-08T10:53:58.013Z,5164.00
2022-11-08T10:54:57.994Z,5124.00
2022-11-08T10:55:57.816Z,5044.00
2022-11-08T10:56:57.913Z,5000.00
2022-11-08T10:57:57.999Z,4948.00
2022-11-08T10:58:58.780Z,4968.00
2022-11-08T10:59:58.572Z,4972.00
2022-11-08T11:00:58.190Z,4988.00
2022-11-08T11:01:57.780Z,5004.00
2022-11-08T11:02:57.776Z,5040.00
2022-11-08T11:03:58.706Z,5096.00
2022-11-08T11:04:57.678Z,5148.00
2022-11-08T11:05:57.708Z,5176.00
2022-11-08T11:06:58.657Z,5224.00
2022-11-08T11:07:59.213Z,5292.00
2022-11-08T11:08:57.647Z,5328.00
2022-11-08T11:09:57.647Z,5336.00
2022-11-08T11:10:57.615Z,5336.00
2022-11-08T11:11:57.567Z,5356.00
2022-11-08T11:12:58.350Z,5412.00
2022-11-08T11:13:58.314Z,5508.00
2022-11-08T11:14:57.570Z,5584.00
2022-11-08T11:15:57.575Z,5624.00
2022-11-08T11:17:06.454Z,5692.00
2022-11-08T11:17:57.537Z,5740.00
2022-11-08T11:18:57.536Z,5780.00
2022-11-08T11:19:57.757Z,5820.00
2022-11-08T11:20:57.677Z,5848.00
2022-11-08T11:21:57.453Z,5888.00
2022-11-08T11:22:58.410Z,5920.00
2022-11-08T11:23:57.428Z,5956.00
2022-11-08T11:24:58.222Z,6004.00
2022-11-08T11:25:57.439Z,6028.00
2022-11-08T11:26:57.438Z,6096.00
2022-11-08T11:27:57.459Z,6168.00
2022-11-08T11:28:57.399Z,6224.00
2022-11-08T11:29:57.369Z,6292.00
2022-11-08T11:30:57.371Z,6332.00
2022-11-08T11:31:57.530Z,6344.00
2022-11-08T11:32:57.580Z,6356.00
2022-11-08T11:33:57.368Z,6340.00
2022-11-08T11:34:57.396Z,6348.00
2022-11-08T11:35:57.288Z,6372.00
2022-11-08T11:36:57.463Z,6404.00
2022-11-08T11:38:07.155Z,6468.00
2022-11-08T11:38:57.281Z,6532.00
2022-11-08T11:39:57.201Z,6616.00
2022-11-08T11:40:57.306Z,6708.00
2022-11-08T11:41:58.133Z,6816.00
2022-11-08T11:42:58.034Z,6924.00
2022-11-08T11:43:57.179Z,7052.00
2022-11-08T11:44:57.151Z,7196.00
2022-11-08T11:45:58.161Z,7356.00
2022-11-08T11:46:57.145Z,7500.00
2022-11-08T11:47:57.122Z,7652.00
2022-11-08T11:48:57.264Z,7780.00
2022-11-08T11:49:57.072Z,7860.00
2022-11-08T11:50:57.107Z,7940.00
2022-11-08T11:51:57.177Z,7996.00
2022-11-08T11:52:58.085Z,8016.00
2022-11-08T11:53:57.049Z,7988.00
2022-11-08T11:54:57.035Z,7948.00
2022-11-08T11:55:56.983Z,7872.00
2022-11-08T11:56:58.977Z,7772.00
2022-11-08T11:57:57.401Z,7612.00
2022-11-08T11:58:56.975Z,7416.00
2022-11-08T11:59:57.029Z,7216.00
2022-11-08T12:00:56.937Z,7040.00
2022-11-08T12:01:56.979Z,6920.00
2022-11-08T12:02:56.909Z,6828.00
2022-11-08T12:03:56.897Z,6760.00
2022-11-08T12:04:57.318Z,6720.00
2022-11-08T12:05:57.870Z,6720.00
2022-11-08T12:07:00.813Z,6736.00
2022-11-08T12:07:57.959Z,6760.00
2022-11-08T12:08:56.969Z,6820.00
2022-11-08T12:09:56.918Z,6872.00
2022-11-08T12:10:56.966Z,6888.00
2022-11-08T12:11:56.952Z,6916.00
2022-11-08T12:12:56.823Z,6932.00
2022-11-08T12:13:56.770Z,6900.00
2022-11-08T12:14:56.829Z,6868.00
2022-11-08T12:15:57.243Z,6824.00
2022-11-08T12:16:56.778Z,6812.00
2022-11-08T12:17:57.370Z,6828.00
2022-11-08T12:18:57.016Z,6864.00
2022-11-08T12:19:56.838Z,6932.00
2022-11-08T12:20:56.706Z,7024.00
2022-11-08T12:21:56.670Z,7068.00
2022-11-08T12:22:56.665Z,7088.00
2022-11-08T12:23:56.662Z,7036.00
2022-11-08T12:24:56.624Z,6940.00
2022-11-08T12:25:56.602Z,6816.00
2022-11-08T12:26:57.395Z,6692.00
2022-11-08T12:27:57.852Z,6576.00
2022-11-08T12:28:56.804Z,6484.00
2022-11-08T12:29:56.695Z,6452.00
2022-11-08T12:30:57.297Z,6444.00
2022-11-08T12:31:57.516Z,6456.00
2022-11-08T12:32:56.783Z,6468.00
2022-11-08T12:33:58.193Z,6496.00
2022-11-08T12:34:56.530Z,6540.00
2022-11-08T12:35:56.465Z,6580.00
2022-11-08T12:36:56.799Z,6624.00
2022-11-08T12:37:57.355Z,6676.00
2022-11-08T12:38:56.588Z,6724.00
2022-11-08T12:39:56.428Z,6764.00
2022-11-08T12:40:57.947Z,6784.00
2022-11-08T12:41:56.427Z,6772.00
2022-11-08T12:42:56.378Z,6748.00